ESNO

Örnsköldsvik Airport

Örnsköldsvik, Sweden
METAR ESNO 191650Z 27011KT CAVOK 17/05 Q1007
Observed Flight Rules
Aug-19 @ 16:50 UTC (23 minutes ago) Visual Flight Rules
Wind Visibility Clouds
270° at 11 knots 10,000+ meters
  • Clear skies
Temperatures Readings
Current 17°C / 63°F
Dewpoint 5°C / 41°F
Humidity 45%
Altimeter 29.73" Hg
Pressure 1007 hPa
Elevation 103
METAR ESNO 191650Z 27011KT CAVOK 17/05 Q1007
Observed Flight Rules
Aug-19 @ 16:50 UTC
(23 minutes ago)
VFR
Wind Visibility
270° at 11 knots 10,000+ meters
Clouds
  • Clear skies
Temperature Dewpoint
17°C / 63°F 5°C / 41°F
Humidity Altimeter Pressure
45% 29.73" Hg 1007 hPa